sensor_id;sensor_type;location;lat;lon;timestamp;pressure;altitude;pressure_sealevel;temperature;humidity
67099;BME280;54288;53.046;5.668;2023-03-19T08:52:44;101453.25;;;8.21;100.00
67099;BME280;54288;53.046;5.668;2023-03-19T10:17:28;101533.97;;;9.10;100.00
67099;BME280;54288;53.046;5.668;2023-03-19T10:20:04;101540.09;;;9.04;100.00
67099;BME280;54288;53.046;5.668;2023-03-19T10:22:42;101541.81;;;9.07;100.00
67099;BME280;54288;53.046;5.668;2023-03-19T10:25:15;101528.75;;;9.04;100.00
67099;BME280;54288;53.046;5.668;2023-03-19T10:27:54;101535.72;;;9.09;100.00
67099;BME280;54288;53.046;5.668;2023-03-19T10:30:21;101536.59;;;9.08;100.00
67099;BME280;54288;53.046;5.668;2023-03-19T10:33:15;101540.94;;;9.17;100.00
67099;BME280;54288;53.046;5.668;2023-03-19T10:35:44;101533.97;;;9.16;100.00
67099;BME280;54288;53.046;5.668;2023-03-19T10:38:31;101547.03;;;9.10;100.00
67099;BME280;54288;53.046;5.668;2023-03-19T10:51:56;101560.94;;;9.25;100.00
67099;BME280;54288;53.046;5.668;2023-03-19T10:54:26;101549.59;;;9.25;100.00
67099;BME280;54288;53.046;5.668;2023-03-19T10:56:55;101556.53;;;9.32;100.00
67099;BME280;54288;53.046;5.668;2023-03-19T10:59:37;101560.00;;;9.35;100.00
67099;BME280;54288;53.046;5.668;2023-03-19T11:02:23;101571.34;;;9.37;100.00
67099;BME280;54288;53.046;5.668;2023-03-19T11:07:38;101572.16;;;9.44;100.00
67099;BME280;54288;53.046;5.668;2023-03-19T11:10:11;101558.22;;;9.49;100.00
67099;BME280;54288;53.046;5.668;2023-03-19T11:12:38;101558.19;;;9.54;100.00
67099;BME280;54288;53.046;5.668;2023-03-19T11:15:20;101561.63;;;9.62;100.00
67099;BME280;54288;53.046;5.668;2023-03-19T11:17:49;101563.34;;;9.66;100.00
67099;BME280;54288;53.046;5.668;2023-03-19T11:20:30;101563.38;;;9.63;100.00
67099;BME280;54288;53.046;5.668;2023-03-19T11:22:58;101563.38;;;9.64;100.00
67099;BME280;54288;53.046;5.668;2023-03-19T11:30:39;101562.47;;;9.70;100.00
67099;BME280;54288;53.046;5.668;2023-03-19T11:36:09;101551.06;;;9.75;100.00
67099;BME280;54288;53.046;5.668;2023-03-19T11:50:44;101557.16;;;9.80;100.00
67099;BME280;54288;53.046;5.668;2023-03-19T11:53:19;101562.34;;;9.86;100.00
67099;BME280;54288;53.046;5.668;2023-03-19T11:56:14;101557.09;;;9.89;100.00
67099;BME280;54288;53.046;5.668;2023-03-19T12:45:35;101602.06;;;10.48;100.00
67099;BME280;54288;53.046;5.668;2023-03-19T12:51:11;101597.72;;;10.49;100.00
67099;BME280;54288;53.046;5.668;2023-03-19T12:53:55;101590.69;;;10.52;100.00
67099;BME280;54288;53.046;5.668;2023-03-19T12:56:45;101604.63;;;10.57;100.00
67099;BME280;54288;53.046;5.668;2023-03-19T12:59:16;101603.78;;;10.55;100.00
67099;BME280;54288;53.046;5.668;2023-03-19T13:02:08;101610.75;;;10.56;100.00
67099;BME280;54288;53.046;5.668;2023-03-19T13:04:47;101610.72;;;10.59;100.00
67099;BME280;54288;53.046;5.668;2023-03-19T13:07:21;101604.63;;;10.57;100.00
67099;BME280;54288;53.046;5.668;2023-03-19T13:10:04;101608.09;;;10.61;100.00
67099;BME280;54288;53.046;5.668;2023-03-19T13:12:39;101613.31;;;10.61;100.00
67099;BME280;54288;53.046;5.668;2023-03-19T13:15:23;101622.91;;;10.62;100.00
67099;BME280;54288;53.046;5.668;2023-03-19T13:37:19;101621.19;;;10.61;100.00
67099;BME280;54288;53.046;5.668;2023-03-19T13:40:03;101630.78;;;10.62;100.00
67099;BME280;54288;53.046;5.668;2023-03-19T13:42:47;101631.59;;;10.68;100.00
67099;BME280;54288;53.046;5.668;2023-03-19T13:45:33;101634.22;;;10.65;100.00
67099;BME280;54288;53.046;5.668;2023-03-19T13:48:33;101636.84;;;10.68;100.00
67099;BME280;54288;53.046;5.668;2023-03-19T13:51:28;101636.84;;;10.68;100.00
67099;BME280;54288;53.046;5.668;2023-03-19T13:59:41;101640.41;;;10.60;100.00
67099;BME280;54288;53.046;5.668;2023-03-19T14:05:03;101638.69;;;10.56;100.00
67099;BME280;54288;53.046;5.668;2023-03-19T14:07:38;101640.41;;;10.61;100.00
67099;BME280;54288;53.046;5.668;2023-03-19T14:10:21;101642.13;;;10.61;100.00
67099;BME280;54288;53.046;5.668;2023-03-19T14:13:14;101646.53;;;10.54;100.00
67099;BME280;54288;53.046;5.668;2023-03-19T14:19:11;101656.13;;;10.60;100.00
67099;BME280;54288;53.046;5.668;2023-03-19T14:25:18;101670.94;;;10.59;100.00
67099;BME280;54288;53.046;5.668;2023-03-19T14:58:53;101656.47;;;10.10;100.00
67099;BME280;54288;53.046;5.668;2023-03-19T15:01:43;101656.50;;;10.04;100.00
67099;BME280;54288;53.046;5.668;2023-03-19T15:45:50;101677.53;;;9.73;100.00
67099;BME280;54288;53.046;5.668;2023-03-19T15:53:46;101675.84;;;9.57;100.00
67099;BME280;54288;53.046;5.668;2023-03-19T15:56:48;101675.81;;;9.63;100.00
67099;BME280;54288;53.046;5.668;2023-03-19T19:26:23;101899.88;;;7.69;100.00
67099;BME280;54288;53.046;5.668;2023-03-19T19:31:57;101916.38;;;7.68;100.00
67099;BME280;54288;53.046;5.668;2023-03-19T19:34:26;101919.88;;;7.69;100.00
67099;BME280;54288;53.046;5.668;2023-03-19T19:36:54;101908.50;;;7.62;100.00
67099;BME280;54288;53.046;5.668;2023-03-19T19:39:23;101914.53;;;7.58;100.00
67099;BME280;54288;53.046;5.668;2023-03-19T19:44:31;101924.13;;;7.59;100.00
67099;BME280;54288;53.046;5.668;2023-03-19T19:46:57;101922.41;;;7.61;100.00
67099;BME280;54288;53.046;5.668;2023-03-19T19:49:22;101932.84;;;7.63;100.00
67099;BME280;54288;53.046;5.668;2023-03-19T19:51:49;101921.56;;;7.65;100.00
67099;BME280;54288;53.046;5.668;2023-03-19T19:54:15;101925.88;;;7.63;100.00
67099;BME280;54288;53.046;5.668;2023-03-19T19:56:41;101917.16;;;7.58;100.00
67099;BME280;54288;53.046;5.668;2023-03-19T19:59:13;101920.66;;;7.62;100.00
67099;BME280;54288;53.046;5.668;2023-03-19T20:04:22;101925.00;;;7.60;100.00
67099;BME280;54288;53.046;5.668;2023-03-19T20:06:48;101929.25;;;7.53;100.00
67099;BME280;54288;53.046;5.668;2023-03-19T20:09:15;101923.16;;;7.48;100.00
67099;BME280;54288;53.046;5.668;2023-03-19T20:11:41;101923.13;;;7.47;100.00
67099;BME280;54288;53.046;5.668;2023-03-19T20:14:11;101927.47;;;7.46;100.00
67099;BME280;54288;53.046;5.668;2023-03-19T20:19:19;101928.34;;;7.47;100.00
67099;BME280;54288;53.046;5.668;2023-03-19T20:21:45;101940.50;;;7.48;100.00
67099;BME280;54288;53.046;5.668;2023-03-19T20:24:13;101938.75;;;7.45;100.00
67099;BME280;54288;53.046;5.668;2023-03-19T20:26:40;101946.53;;;7.44;100.00
67099;BME280;54288;53.046;5.668;2023-03-19T20:29:13;101943.91;;;7.39;100.00
67099;BME280;54288;53.046;5.668;2023-03-19T20:31:39;101953.47;;;7.40;100.00
67099;BME280;54288;53.046;5.668;2023-03-19T20:34:04;101949.09;;;7.35;100.00
67099;BME280;54288;53.046;5.668;2023-03-19T20:36:30;101952.59;;;7.40;100.00
67099;BME280;54288;53.046;5.668;2023-03-19T20:38:56;101960.41;;;7.38;100.00
67099;BME280;54288;53.046;5.668;2023-03-19T20:41:24;101955.16;;;7.35;100.00
67099;BME280;54288;53.046;5.668;2023-03-19T20:43:54;101962.06;;;7.32;100.00
67099;BME280;54288;53.046;5.668;2023-03-19T20:46:21;101962.03;;;7.30;100.00
67099;BME280;54288;53.046;5.668;2023-03-19T20:48:49;101965.50;;;7.29;100.00
67099;BME280;54288;53.046;5.668;2023-03-19T20:51:21;101964.59;;;7.24;100.00
67099;BME280;54288;53.046;5.668;2023-03-19T20:56:34;101959.34;;;7.20;100.00
67099;BME280;54288;53.046;5.668;2023-03-19T20:59:03;101970.66;;;7.23;100.00
67099;BME280;54288;53.046;5.668;2023-03-19T21:01:32;101963.66;;;7.19;100.00
67099;BME280;54288;53.046;5.668;2023-03-19T21:03:58;101976.59;;;7.13;100.00
67099;BME280;54288;53.046;5.668;2023-03-19T21:06:26;101975.72;;;7.11;100.00
67099;BME280;54288;53.046;5.668;2023-03-19T21:08:55;101981.81;;;7.13;100.00
67099;BME280;54288;53.046;5.668;2023-03-19T21:11:36;101973.09;;;7.10;100.00
67099;BME280;54288;53.046;5.668;2023-03-19T21:14:02;101974.84;;;7.11;100.00
67099;BME280;54288;53.046;5.668;2023-03-19T21:16:29;101979.19;;;7.10;100.00
67099;BME280;54288;53.046;5.668;2023-03-19T21:18:59;101973.97;;;7.10;100.00
67099;BME280;54288;53.046;5.668;2023-03-19T21:21:34;101975.78;;;7.14;100.00
67099;BME280;54288;53.046;5.668;2023-03-19T21:24:11;101982.63;;;7.08;100.00
67099;BME280;54288;53.046;5.668;2023-03-19T21:26:40;101986.97;;;7.06;100.00
67099;BME280;54288;53.046;5.668;2023-03-19T21:29:13;101989.47;;;6.98;100.00
67099;BME280;54288;53.046;5.668;2023-03-19T21:31:40;101978.19;;;6.99;100.00
67099;BME280;54288;53.046;5.668;2023-03-19T21:34:12;101980.81;;;7.01;100.00
67099;BME280;54288;53.046;5.668;2023-03-19T21:36:38;101966.94;;;7.02;100.00
67099;BME280;54288;53.046;5.668;2023-03-19T21:39:04;101964.28;;;6.99;100.00
67099;BME280;54288;53.046;5.668;2023-03-19T21:41:31;101972.16;;;7.02;100.00
67099;BME280;54288;53.046;5.668;2023-03-19T21:44:06;101973.78;;;6.95;100.00
67099;BME280;54288;53.046;5.668;2023-03-19T21:46:36;101967.72;;;6.95;100.00
67099;BME280;54288;53.046;5.668;2023-03-19T21:49:02;101979.88;;;6.96;100.00
67099;BME280;54288;53.046;5.668;2023-03-19T21:51:28;101973.78;;;6.95;100.00
67099;BME280;54288;53.046;5.668;2023-03-19T21:53:54;101959.84;;;6.90;100.00
67099;BME280;54288;53.046;5.668;2023-03-19T21:58:50;101968.63;;;6.98;100.00
67099;BME280;54288;53.046;5.668;2023-03-19T22:01:22;101972.09;;;6.97;100.00
67099;BME280;54288;53.046;5.668;2023-03-19T22:03:50;101982.59;;;7.03;100.00
67099;BME280;54288;53.046;5.668;2023-03-19T22:06:16;101982.56;;;7.02;100.00
67099;BME280;54288;53.046;5.668;2023-03-19T22:08:43;101990.41;;;7.03;100.00
67099;BME280;54288;53.046;5.668;2023-03-19T22:11:16;101980.88;;;7.05;100.00
67099;BME280;54288;53.046;5.668;2023-03-19T22:13:43;101981.66;;;6.98;100.00
67099;BME280;54288;53.046;5.668;2023-03-19T22:16:20;101988.59;;;6.99;100.00
67099;BME280;54288;53.046;5.668;2023-03-19T22:18:49;101989.50;;;7.01;100.00
67099;BME280;54288;53.046;5.668;2023-03-19T22:21:19;102000.75;;;6.99;100.00
67099;BME280;54288;53.046;5.668;2023-03-19T22:23:45;101999.84;;;6.97;100.00
67099;BME280;54288;53.046;5.668;2023-03-19T22:26:33;101992.03;;;6.95;100.00
67099;BME280;54288;53.046;5.668;2023-03-19T22:29:35;101998.09;;;6.94;100.00
67099;BME280;54288;53.046;5.668;2023-03-19T22:31:55;101989.41;;;6.92;100.00
67099;BME280;54288;53.046;5.668;2023-03-19T22:34:24;101978.16;;;6.95;100.00
67099;BME280;54288;53.046;5.668;2023-03-19T22:36:50;101979.00;;;6.95;100.00
67099;BME280;54288;53.046;5.668;2023-03-19T22:39:16;101976.38;;;6.94;100.00
67099;BME280;54288;53.046;5.668;2023-03-19T22:41:44;101969.44;;;6.94;100.00
67099;BME280;54288;53.046;5.668;2023-03-19T22:44:24;101966.81;;;6.91;100.00
67099;BME280;54288;53.046;5.668;2023-03-19T22:46:53;101965.94;;;6.91;100.00
67099;BME280;54288;53.046;5.668;2023-03-19T22:49:19;101967.66;;;6.89;100.00
67099;BME280;54288;53.046;5.668;2023-03-19T22:51:45;101966.81;;;6.91;100.00
67099;BME280;54288;53.046;5.668;2023-03-19T22:54:12;101973.78;;;6.95;100.00
67099;BME280;54288;53.046;5.668;2023-03-19T22:56:38;101955.50;;;6.89;100.00
67099;BME280;54288;53.046;5.668;2023-03-19T22:59:04;101964.25;;;6.96;100.00
67099;BME280;54288;53.046;5.668;2023-03-19T23:01:42;101973.78;;;6.95;100.00
67099;BME280;54288;53.046;5.668;2023-03-19T23:06:44;101947.75;;;6.95;100.00
67099;BME280;54288;53.046;5.668;2023-03-19T23:09:17;101940.81;;;6.94;100.00
67099;BME280;54288;53.046;5.668;2023-03-19T23:11:44;101945.13;;;6.94;100.00
67099;BME280;54288;53.046;5.668;2023-03-19T23:14:09;101942.53;;;6.95;100.00
67099;BME280;54288;53.046;5.668;2023-03-19T23:16:40;101945.16;;;6.95;100.00
67099;BME280;54288;53.046;5.668;2023-03-19T23:19:17;101950.41;;;6.98;100.00
67099;BME280;54288;53.046;5.668;2023-03-19T23:21:44;101961.75;;;7.03;100.00
67099;BME280;54288;53.046;5.668;2023-03-19T23:24:11;101959.16;;;7.05;100.00
67099;BME280;54288;53.046;5.668;2023-03-19T23:26:42;101948.72;;;7.02;100.00
67099;BME280;54288;53.046;5.668;2023-03-19T23:29:27;101935.69;;;7.02;100.00
67099;BME280;54288;53.046;5.668;2023-03-19T23:31:54;101940.91;;;7.03;100.00
67099;BME280;54288;53.046;5.668;2023-03-19T23:34:23;101947.00;;;7.05;100.00
67099;BME280;54288;53.046;5.668;2023-03-19T23:36:50;101938.31;;;7.05;100.00
67099;BME280;54288;53.046;5.668;2023-03-19T23:39:16;101940.97;;;7.08;100.00
67099;BME280;54288;53.046;5.668;2023-03-19T23:41:47;101941.84;;;7.08;100.00
67099;BME280;54288;53.046;5.668;2023-03-19T23:44:17;101951.44;;;7.12;100.00
67099;BME280;54288;53.046;5.668;2023-03-19T23:46:46;101947.06;;;7.10;100.00
67099;BME280;54288;53.046;5.668;2023-03-19T23:49:15;101954.88;;;7.11;100.00
67099;BME280;54288;53.046;5.668;2023-03-19T23:51:41;101951.44;;;7.12;100.00
67099;BME280;54288;53.046;5.668;2023-03-19T23:54:34;101954.09;;;7.17;100.00
67099;BME280;54288;53.046;5.668;2023-03-19T23:57:05;101962.78;;;7.19;100.00
67099;BME280;54288;53.046;5.668;2023-03-19T23:59:34;101959.28;;;7.15;100.00
